sensor_id;sensor_type;location;lat;lon;timestamp;temperature;humidity
67182;DHT22;54114;53.524;49.396;2022-07-22T00:02:11;23.50;68.50
67182;DHT22;54114;53.524;49.396;2022-07-22T00:04:38;23.60;68.20
67182;DHT22;54114;53.524;49.396;2022-07-22T00:07:05;23.60;67.70
67182;DHT22;54114;53.524;49.396;2022-07-22T00:09:32;23.60;67.60
67182;DHT22;54114;53.524;49.396;2022-07-22T00:11:59;23.70;67.80
67182;DHT22;54114;53.524;49.396;2022-07-22T00:14:26;23.70;67.70
67182;DHT22;54114;53.524;49.396;2022-07-22T00:16:53;23.70;67.40
67182;DHT22;54114;53.524;49.396;2022-07-22T00:19:19;23.80;67.50
67182;DHT22;54114;53.524;49.396;2022-07-22T00:21:46;23.80;67.50
67182;DHT22;54114;53.524;49.396;2022-07-22T00:24:13;23.80;67.20
67182;DHT22;54114;53.524;49.396;2022-07-22T00:26:39;23.90;67.00
67182;DHT22;54114;53.524;49.396;2022-07-22T00:29:06;23.90;67.00
67182;DHT22;54114;53.524;49.396;2022-07-22T00:31:33;23.90;66.90
67182;DHT22;54114;53.524;49.396;2022-07-22T00:34:00;24.00;66.80
67182;DHT22;54114;53.524;49.396;2022-07-22T00:36:29;24.00;66.70
67182;DHT22;54114;53.524;49.396;2022-07-22T00:38:57;24.00;66.60
67182;DHT22;54114;53.524;49.396;2022-07-22T00:41:24;23.90;65.90
67182;DHT22;54114;53.524;49.396;2022-07-22T00:43:59;23.90;65.50
67182;DHT22;54114;53.524;49.396;2022-07-22T00:46:28;23.80;65.20
67182;DHT22;54114;53.524;49.396;2022-07-22T00:48:56;23.80;65.10
67182;DHT22;54114;53.524;49.396;2022-07-22T00:51:25;23.80;64.60
67182;DHT22;54114;53.524;49.396;2022-07-22T00:53:53;23.80;64.10
67182;DHT22;54114;53.524;49.396;2022-07-22T00:56:21;23.70;63.90
67182;DHT22;54114;53.524;49.396;2022-07-22T00:58:51;23.70;63.70
67182;DHT22;54114;53.524;49.396;2022-07-22T01:01:19;23.70;63.50
67182;DHT22;54114;53.524;49.396;2022-07-22T01:03:49;23.70;63.40
67182;DHT22;54114;53.524;49.396;2022-07-22T01:06:15;23.80;63.20
67182;DHT22;54114;53.524;49.396;2022-07-22T01:08:42;23.80;63.10
67182;DHT22;54114;53.524;49.396;2022-07-22T01:11:17;23.80;62.90
67182;DHT22;54114;53.524;49.396;2022-07-22T01:13:46;23.80;63.00
67182;DHT22;54114;53.524;49.396;2022-07-22T01:16:14;23.80;63.00
67182;DHT22;54114;53.524;49.396;2022-07-22T01:18:42;23.90;62.90
67182;DHT22;54114;53.524;49.396;2022-07-22T01:21:10;23.90;62.60
67182;DHT22;54114;53.524;49.396;2022-07-22T01:23:38;23.90;62.20
67182;DHT22;54114;53.524;49.396;2022-07-22T01:26:05;23.90;61.90
67182;DHT22;54114;53.524;49.396;2022-07-22T01:28:32;23.90;61.70
67182;DHT22;54114;53.524;49.396;2022-07-22T01:30:59;23.90;61.70
67182;DHT22;54114;53.524;49.396;2022-07-22T01:33:26;23.90;61.50
67182;DHT22;54114;53.524;49.396;2022-07-22T01:35:53;23.90;61.10
67182;DHT22;54114;53.524;49.396;2022-07-22T01:38:19;23.90;60.80
67182;DHT22;54114;53.524;49.396;2022-07-22T01:40:46;23.90;60.40
67182;DHT22;54114;53.524;49.396;2022-07-22T01:43:14;24.00;60.20
67182;DHT22;54114;53.524;49.396;2022-07-22T01:45:51;24.00;59.90
67182;DHT22;54114;53.524;49.396;2022-07-22T01:48:18;24.00;59.40
67182;DHT22;54114;53.524;49.396;2022-07-22T01:50:45;24.00;59.70
67182;DHT22;54114;53.524;49.396;2022-07-22T01:53:12;23.90;59.30
67182;DHT22;54114;53.524;49.396;2022-07-22T01:55:38;23.90;59.00
67182;DHT22;54114;53.524;49.396;2022-07-22T01:58:05;23.90;58.70
67182;DHT22;54114;53.524;49.396;2022-07-22T02:00:33;23.90;58.60
67182;DHT22;54114;53.524;49.396;2022-07-22T02:03:00;23.90;58.50
67182;DHT22;54114;53.524;49.396;2022-07-22T02:05:27;24.00;58.60
67182;DHT22;54114;53.524;49.396;2022-07-22T02:07:59;24.10;58.60
67182;DHT22;54114;53.524;49.396;2022-07-22T02:10:27;24.20;58.40
67182;DHT22;54114;53.524;49.396;2022-07-22T02:12:55;24.30;58.00
67182;DHT22;54114;53.524;49.396;2022-07-22T02:15:22;24.30;57.60
67182;DHT22;54114;53.524;49.396;2022-07-22T02:17:49;24.40;57.40
67182;DHT22;54114;53.524;49.396;2022-07-22T02:20:16;24.40;56.90
67182;DHT22;54114;53.524;49.396;2022-07-22T02:22:43;24.40;56.50
67182;DHT22;54114;53.524;49.396;2022-07-22T02:25:10;24.50;56.50
67182;DHT22;54114;53.524;49.396;2022-07-22T02:27:38;24.50;56.30
67182;DHT22;54114;53.524;49.396;2022-07-22T02:30:06;24.50;56.10
67182;DHT22;54114;53.524;49.396;2022-07-22T02:32:34;24.60;56.20
67182;DHT22;54114;53.524;49.396;2022-07-22T02:35:01;24.70;55.70
67182;DHT22;54114;53.524;49.396;2022-07-22T02:37:28;24.80;55.50
67182;DHT22;54114;53.524;49.396;2022-07-22T02:39:54;25.00;55.70
67182;DHT22;54114;53.524;49.396;2022-07-22T02:42:21;25.10;55.60
67182;DHT22;54114;53.524;49.396;2022-07-22T02:44:48;25.20;55.50
67182;DHT22;54114;53.524;49.396;2022-07-22T02:47:15;25.30;55.70
67182;DHT22;54114;53.524;49.396;2022-07-22T02:49:41;25.50;56.10
67182;DHT22;54114;53.524;49.396;2022-07-22T02:52:08;25.70;56.10
67182;DHT22;54114;53.524;49.396;2022-07-22T02:54:34;25.80;55.90
67182;DHT22;54114;53.524;49.396;2022-07-22T02:57:01;26.00;55.30
67182;DHT22;54114;53.524;49.396;2022-07-22T02:59:28;26.10;55.20
67182;DHT22;54114;53.524;49.396;2022-07-22T03:01:55;26.20;55.80
67182;DHT22;54114;53.524;49.396;2022-07-22T03:04:21;26.20;54.40
67182;DHT22;54114;53.524;49.396;2022-07-22T03:06:48;26.30;53.90
67182;DHT22;54114;53.524;49.396;2022-07-22T03:09:15;26.30;54.10
67182;DHT22;54114;53.524;49.396;2022-07-22T03:11:42;26.40;54.00
67182;DHT22;54114;53.524;49.396;2022-07-22T03:14:08;26.40;53.50
67182;DHT22;54114;53.524;49.396;2022-07-22T03:16:35;26.40;53.40
67182;DHT22;54114;53.524;49.396;2022-07-22T03:19:02;26.50;53.30
67182;DHT22;54114;53.524;49.396;2022-07-22T03:21:28;26.50;52.80
67182;DHT22;54114;53.524;49.396;2022-07-22T03:23:55;26.50;52.60
67182;DHT22;54114;53.524;49.396;2022-07-22T03:26:22;26.60;52.70
67182;DHT22;54114;53.524;49.396;2022-07-22T03:28:50;26.60;51.70
67182;DHT22;54114;53.524;49.396;2022-07-22T03:31:17;26.60;51.60
67182;DHT22;54114;53.524;49.396;2022-07-22T03:33:44;26.70;51.60
67182;DHT22;54114;53.524;49.396;2022-07-22T03:36:11;26.80;51.50
67182;DHT22;54114;53.524;49.396;2022-07-22T03:38:38;26.80;51.30
67182;DHT22;54114;53.524;49.396;2022-07-22T03:41:04;27.00;51.60
67182;DHT22;54114;53.524;49.396;2022-07-22T03:43:31;27.10;51.20
67182;DHT22;54114;53.524;49.396;2022-07-22T03:45:58;27.10;50.80
67182;DHT22;54114;53.524;49.396;2022-07-22T03:48:25;27.10;50.70
67182;DHT22;54114;53.524;49.396;2022-07-22T03:50:52;27.20;50.80
67182;DHT22;54114;53.524;49.396;2022-07-22T03:53:19;27.40;50.60
67182;DHT22;54114;53.524;49.396;2022-07-22T03:55:47;27.50;50.20
67182;DHT22;54114;53.524;49.396;2022-07-22T03:58:15;27.50;49.50
67182;DHT22;54114;53.524;49.396;2022-07-22T04:00:43;27.60;49.20
67182;DHT22;54114;53.524;49.396;2022-07-22T04:03:10;27.70;49.50
67182;DHT22;54114;53.524;49.396;2022-07-22T04:05:37;27.70;49.50
67182;DHT22;54114;53.524;49.396;2022-07-22T04:08:04;27.80;48.90
67182;DHT22;54114;53.524;49.396;2022-07-22T04:10:31;27.80;48.30
67182;DHT22;54114;53.524;49.396;2022-07-22T04:12:58;27.90;48.10
67182;DHT22;54114;53.524;49.396;2022-07-22T04:15:24;27.90;47.80
67182;DHT22;54114;53.524;49.396;2022-07-22T04:17:51;27.90;47.50
67182;DHT22;54114;53.524;49.396;2022-07-22T04:20:18;28.00;47.50
67182;DHT22;54114;53.524;49.396;2022-07-22T04:22:45;28.10;47.10
67182;DHT22;54114;53.524;49.396;2022-07-22T04:25:11;28.00;46.90
67182;DHT22;54114;53.524;49.396;2022-07-22T04:27:38;28.10;46.90
67182;DHT22;54114;53.524;49.396;2022-07-22T04:30:05;28.20;46.70
67182;DHT22;54114;53.524;49.396;2022-07-22T04:32:32;28.30;46.60
67182;DHT22;54114;53.524;49.396;2022-07-22T04:34:59;28.30;46.20
67182;DHT22;54114;53.524;49.396;2022-07-22T04:37:26;28.40;46.10
67182;DHT22;54114;53.524;49.396;2022-07-22T04:39:52;28.40;46.10
67182;DHT22;54114;53.524;49.396;2022-07-22T04:42:19;28.60;46.10
67182;DHT22;54114;53.524;49.396;2022-07-22T04:44:45;28.70;45.40
67182;DHT22;54114;53.524;49.396;2022-07-22T04:47:13;28.90;45.20
67182;DHT22;54114;53.524;49.396;2022-07-22T04:49:39;29.10;44.80
67182;DHT22;54114;53.524;49.396;2022-07-22T04:52:06;29.30;44.40
67182;DHT22;54114;53.524;49.396;2022-07-22T04:54:34;29.50;44.30
67182;DHT22;54114;53.524;49.396;2022-07-22T04:57:01;29.60;43.80
67182;DHT22;54114;53.524;49.396;2022-07-22T04:59:28;29.80;43.40
67182;DHT22;54114;53.524;49.396;2022-07-22T05:01:55;29.90;43.20
67182;DHT22;54114;53.524;49.396;2022-07-22T05:04:22;30.10;42.60
67182;DHT22;54114;53.524;49.396;2022-07-22T05:06:48;30.20;42.20
67182;DHT22;54114;53.524;49.396;2022-07-22T05:09:15;30.40;41.90
67182;DHT22;54114;53.524;49.396;2022-07-22T05:11:41;30.50;41.40
67182;DHT22;54114;53.524;49.396;2022-07-22T05:14:08;30.70;41.20
67182;DHT22;54114;53.524;49.396;2022-07-22T05:16:37;30.90;41.00
67182;DHT22;54114;53.524;49.396;2022-07-22T05:19:04;31.10;40.70
67182;DHT22;54114;53.524;49.396;2022-07-22T05:21:32;31.30;40.40
67182;DHT22;54114;53.524;49.396;2022-07-22T05:23:59;31.40;40.20
67182;DHT22;54114;53.524;49.396;2022-07-22T05:26:25;31.50;40.20
67182;DHT22;54114;53.524;49.396;2022-07-22T05:28:55;31.50;40.30
67182;DHT22;54114;53.524;49.396;2022-07-22T05:31:22;31.70;40.40
67182;DHT22;54114;53.524;49.396;2022-07-22T05:33:48;32.00;40.30
67182;DHT22;54114;53.524;49.396;2022-07-22T05:36:15;32.10;39.80
67182;DHT22;54114;53.524;49.396;2022-07-22T05:38:42;32.30;39.50
67182;DHT22;54114;53.524;49.396;2022-07-22T05:41:08;32.50;39.20
67182;DHT22;54114;53.524;49.396;2022-07-22T05:43:35;32.60;38.90
67182;DHT22;54114;53.524;49.396;2022-07-22T05:46:02;32.70;38.60
67182;DHT22;54114;53.524;49.396;2022-07-22T05:48:29;33.00;38.50
67182;DHT22;54114;53.524;49.396;2022-07-22T05:50:55;33.20;38.20
67182;DHT22;54114;53.524;49.396;2022-07-22T05:53:22;33.50;37.70
67182;DHT22;54114;53.524;49.396;2022-07-22T05:55:49;33.50;37.40
67182;DHT22;54114;53.524;49.396;2022-07-22T05:58:16;33.60;37.20
67182;DHT22;54114;53.524;49.396;2022-07-22T06:00:43;33.90;37.00
67182;DHT22;54114;53.524;49.396;2022-07-22T06:03:10;34.20;36.60
67182;DHT22;54114;53.524;49.396;2022-07-22T06:05:36;34.30;36.00
67182;DHT22;54114;53.524;49.396;2022-07-22T06:08:03;34.20;35.90
67182;DHT22;54114;53.524;49.396;2022-07-22T06:10:30;34.20;35.90
67182;DHT22;54114;53.524;49.396;2022-07-22T06:12:57;34.30;35.90
67182;DHT22;54114;53.524;49.396;2022-07-22T06:15:24;34.20;35.60
67182;DHT22;54114;53.524;49.396;2022-07-22T06:17:50;34.20;35.50
67182;DHT22;54114;53.524;49.396;2022-07-22T06:20:17;34.10;35.50
67182;DHT22;54114;53.524;49.396;2022-07-22T06:22:44;34.00;35.70
67182;DHT22;54114;53.524;49.396;2022-07-22T06:25:11;34.00;36.00
67182;DHT22;54114;53.524;49.396;2022-07-22T06:27:37;33.90;36.00
67182;DHT22;54114;53.524;49.396;2022-07-22T06:30:04;33.70;36.00
67182;DHT22;54114;53.524;49.396;2022-07-22T06:32:32;33.60;36.30
67182;DHT22;54114;53.524;49.396;2022-07-22T06:34:59;33.80;36.50
67182;DHT22;54114;53.524;49.396;2022-07-22T06:37:26;34.00;36.40
67182;DHT22;54114;53.524;49.396;2022-07-22T06:39:52;34.10;36.50
67182;DHT22;54114;53.524;49.396;2022-07-22T06:42:19;34.30;36.60
67182;DHT22;54114;53.524;49.396;2022-07-22T06:44:46;34.40;36.30
67182;DHT22;54114;53.524;49.396;2022-07-22T06:47:12;34.10;36.50
67182;DHT22;54114;53.524;49.396;2022-07-22T06:49:39;34.00;36.60
67182;DHT22;54114;53.524;49.396;2022-07-22T06:52:06;33.70;36.90
67182;DHT22;54114;53.524;49.396;2022-07-22T06:54:32;33.50;36.80
67182;DHT22;54114;53.524;49.396;2022-07-22T06:56:59;33.50;37.20
67182;DHT22;54114;53.524;49.396;2022-07-22T06:59:26;33.80;36.90
67182;DHT22;54114;53.524;49.396;2022-07-22T07:01:52;34.20;36.40
67182;DHT22;54114;53.524;49.396;2022-07-22T07:04:19;34.70;35.90
67182;DHT22;54114;53.524;49.396;2022-07-22T07:06:46;35.00;35.40
67182;DHT22;54114;53.524;49.396;2022-07-22T07:09:13;34.90;35.40
67182;DHT22;54114;53.524;49.396;2022-07-22T07:11:39;34.80;35.40
67182;DHT22;54114;53.524;49.396;2022-07-22T07:14:06;34.90;35.20
67182;DHT22;54114;53.524;49.396;2022-07-22T07:16:32;34.80;35.40
67182;DHT22;54114;53.524;49.396;2022-07-22T07:18:59;34.90;35.40
67182;DHT22;54114;53.524;49.396;2022-07-22T07:21:26;35.00;35.10
67182;DHT22;54114;53.524;49.396;2022-07-22T07:23:52;35.10;35.00
67182;DHT22;54114;53.524;49.396;2022-07-22T07:26:19;35.30;34.80
67182;DHT22;54114;53.524;49.396;2022-07-22T07:28:46;35.30;34.80
67182;DHT22;54114;53.524;49.396;2022-07-22T07:31:12;35.40;35.00
67182;DHT22;54114;53.524;49.396;2022-07-22T07:33:39;35.50;34.70
67182;DHT22;54114;53.524;49.396;2022-07-22T07:36:06;35.50;34.40
67182;DHT22;54114;53.524;49.396;2022-07-22T07:38:33;35.60;34.40
67182;DHT22;54114;53.524;49.396;2022-07-22T07:41:00;35.60;34.20
67182;DHT22;54114;53.524;49.396;2022-07-22T07:43:26;35.70;34.30
67182;DHT22;54114;53.524;49.396;2022-07-22T07:45:53;35.60;34.10
67182;DHT22;54114;53.524;49.396;2022-07-22T07:48:19;35.60;34.10
67182;DHT22;54114;53.524;49.396;2022-07-22T07:50:46;35.50;34.00
67182;DHT22;54114;53.524;49.396;2022-07-22T07:53:14;35.50;34.00
67182;DHT22;54114;53.524;49.396;2022-07-22T07:55:42;35.70;34.20
67182;DHT22;54114;53.524;49.396;2022-07-22T07:58:08;35.80;34.00
67182;DHT22;54114;53.524;49.396;2022-07-22T08:00:36;35.80;33.60
67182;DHT22;54114;53.524;49.396;2022-07-22T08:03:03;35.80;33.30
67182;DHT22;54114;53.524;49.396;2022-07-22T08:05:30;35.80;33.10
67182;DHT22;54114;53.524;49.396;2022-07-22T08:07:57;35.90;32.80
67182;DHT22;54114;53.524;49.396;2022-07-22T08:10:24;35.90;32.40
67182;DHT22;54114;53.524;49.396;2022-07-22T08:12:52;35.80;32.60
67182;DHT22;54114;53.524;49.396;2022-07-22T08:15:22;35.70;32.50
67182;DHT22;54114;53.524;49.396;2022-07-22T08:17:49;35.60;32.60
67182;DHT22;54114;53.524;49.396;2022-07-22T08:20:15;35.70;32.80
67182;DHT22;54114;53.524;49.396;2022-07-22T08:22:42;35.90;32.70
67182;DHT22;54114;53.524;49.396;2022-07-22T08:25:08;36.20;32.30
67182;DHT22;54114;53.524;49.396;2022-07-22T08:27:35;36.30;31.90
67182;DHT22;54114;53.524;49.396;2022-07-22T08:30:04;36.30;31.80
67182;DHT22;54114;53.524;49.396;2022-07-22T08:32:32;36.30;31.90
67182;DHT22;54114;53.524;49.396;2022-07-22T08:35:00;36.40;32.10
67182;DHT22;54114;53.524;49.396;2022-07-22T08:37:27;36.60;31.90
67182;DHT22;54114;53.524;49.396;2022-07-22T08:39:54;36.60;31.80
67182;DHT22;54114;53.524;49.396;2022-07-22T08:42:23;36.70;32.00
67182;DHT22;54114;53.524;49.396;2022-07-22T08:44:50;37.00;31.20
67182;DHT22;54114;53.524;49.396;2022-07-22T08:47:22;37.30;31.30
67182;DHT22;54114;53.524;49.396;2022-07-22T08:49:50;37.70;30.70
67182;DHT22;54114;53.524;49.396;2022-07-22T08:52:17;38.10;30.80
67182;DHT22;54114;53.524;49.396;2022-07-22T08:54:43;38.20;30.50
67182;DHT22;54114;53.524;49.396;2022-07-22T08:57:10;38.30;30.30
67182;DHT22;54114;53.524;49.396;2022-07-22T08:59:50;38.50;30.20
67182;DHT22;54114;53.524;49.396;2022-07-22T09:02:23;38.70;30.00
67182;DHT22;54114;53.524;49.396;2022-07-22T09:07:40;38.70;29.80
67182;DHT22;54114;53.524;49.396;2022-07-22T09:10:14;38.60;30.20
67182;DHT22;54114;53.524;49.396;2022-07-22T09:12:54;38.40;30.00
67182;DHT22;54114;53.524;49.396;2022-07-22T09:15:32;38.30;29.60
67182;DHT22;54114;53.524;49.396;2022-07-22T09:18:03;38.30;29.60
67182;DHT22;54114;53.524;49.396;2022-07-22T09:20:32;38.50;29.80
67182;DHT22;54114;53.524;49.396;2022-07-22T09:22:59;38.90;29.30
67182;DHT22;54114;53.524;49.396;2022-07-22T09:25:29;39.30;29.10
67182;DHT22;54114;53.524;49.396;2022-07-22T09:30:38;40.00;28.60
67182;DHT22;54114;53.524;49.396;2022-07-22T09:33:07;40.30;28.30
67182;DHT22;54114;53.524;49.396;2022-07-22T09:35:35;40.40;28.30
67182;DHT22;54114;53.524;49.396;2022-07-22T09:38:04;40.10;28.10
67182;DHT22;54114;53.524;49.396;2022-07-22T09:40:42;39.80;28.20
67182;DHT22;54114;53.524;49.396;2022-07-22T09:43:18;39.50;28.40
67182;DHT22;54114;53.524;49.396;2022-07-22T09:45:54;39.20;28.40
67182;DHT22;54114;53.524;49.396;2022-07-22T09:48:25;38.80;28.70
67182;DHT22;54114;53.524;49.396;2022-07-22T09:50:54;38.50;29.00
67182;DHT22;54114;53.524;49.396;2022-07-22T09:53:27;38.40;29.20
67182;DHT22;54114;53.524;49.396;2022-07-22T09:55:58;38.00;29.10
67182;DHT22;54114;53.524;49.396;2022-07-22T09:58:26;37.60;29.20
67182;DHT22;54114;53.524;49.396;2022-07-22T10:00:55;37.30;29.60
67182;DHT22;54114;53.524;49.396;2022-07-22T10:03:27;37.10;29.90
67182;DHT22;54114;53.524;49.396;2022-07-22T10:05:57;37.00;29.90
67182;DHT22;54114;53.524;49.396;2022-07-22T10:08:28;36.90;30.00
67182;DHT22;54114;53.524;49.396;2022-07-22T10:11:01;36.90;29.90
67182;DHT22;54114;53.524;49.396;2022-07-22T10:13:29;36.90;30.00
67182;DHT22;54114;53.524;49.396;2022-07-22T10:15:57;37.00;30.00
67182;DHT22;54114;53.524;49.396;2022-07-22T10:18:26;37.10;29.90
67182;DHT22;54114;53.524;49.396;2022-07-22T10:21:06;37.00;29.80
67182;DHT22;54114;53.524;49.396;2022-07-22T10:23:35;37.00;29.80
67182;DHT22;54114;53.524;49.396;2022-07-22T10:26:03;37.00;29.80
67182;DHT22;54114;53.524;49.396;2022-07-22T10:28:35;36.90;29.90
67182;DHT22;54114;53.524;49.396;2022-07-22T10:31:22;37.00;30.00
67182;DHT22;54114;53.524;49.396;2022-07-22T10:33:55;37.20;29.90
67182;DHT22;54114;53.524;49.396;2022-07-22T10:36:37;37.20;29.80
67182;DHT22;54114;53.524;49.396;2022-07-22T10:39:13;37.30;29.70
67182;DHT22;54114;53.524;49.396;2022-07-22T10:41:40;37.20;29.80
67182;DHT22;54114;53.524;49.396;2022-07-22T10:44:08;37.10;29.90
67182;DHT22;54114;53.524;49.396;2022-07-22T10:46:54;37.10;29.90
67182;DHT22;54114;53.524;49.396;2022-07-22T10:49:25;37.20;30.00
67182;DHT22;54114;53.524;49.396;2022-07-22T10:52:12;37.20;29.90
67182;DHT22;54114;53.524;49.396;2022-07-22T10:57:42;37.40;29.80
67182;DHT22;54114;53.524;49.396;2022-07-22T11:00:09;37.50;29.70
67182;DHT22;54114;53.524;49.396;2022-07-22T11:02:37;37.60;29.70
67182;DHT22;54114;53.524;49.396;2022-07-22T11:05:05;37.60;29.50
67182;DHT22;54114;53.524;49.396;2022-07-22T11:07:32;37.50;29.60
67182;DHT22;54114;53.524;49.396;2022-07-22T11:10:17;37.40;29.60
67182;DHT22;54114;53.524;49.396;2022-07-22T11:12:49;37.30;29.70
67182;DHT22;54114;53.524;49.396;2022-07-22T11:15:16;37.20;29.70
67182;DHT22;54114;53.524;49.396;2022-07-22T11:17:42;37.00;29.80
67182;DHT22;54114;53.524;49.396;2022-07-22T11:20:11;37.00;29.90
67182;DHT22;54114;53.524;49.396;2022-07-22T11:22:39;37.00;30.00
67182;DHT22;54114;53.524;49.396;2022-07-22T11:25:08;36.90;30.00
67182;DHT22;54114;53.524;49.396;2022-07-22T11:27:36;36.80;30.10
67182;DHT22;54114;53.524;49.396;2022-07-22T11:30:03;36.60;30.10
67182;DHT22;54114;53.524;49.396;2022-07-22T11:32:32;36.60;30.30
67182;DHT22;54114;53.524;49.396;2022-07-22T11:35:00;36.60;30.50
67182;DHT22;54114;53.524;49.396;2022-07-22T11:37:27;36.50;30.70
67182;DHT22;54114;53.524;49.396;2022-07-22T11:40:03;36.60;31.00
67182;DHT22;54114;53.524;49.396;2022-07-22T11:42:31;36.70;30.90
67182;DHT22;54114;53.524;49.396;2022-07-22T11:44:58;36.80;30.90
67182;DHT22;54114;53.524;49.396;2022-07-22T11:47:25;36.90;30.90
67182;DHT22;54114;53.524;49.396;2022-07-22T11:49:52;37.10;30.90
67182;DHT22;54114;53.524;49.396;2022-07-22T11:52:18;37.30;30.70
67182;DHT22;54114;53.524;49.396;2022-07-22T11:54:45;37.30;30.50
67182;DHT22;54114;53.524;49.396;2022-07-22T11:57:13;37.40;30.50
67182;DHT22;54114;53.524;49.396;2022-07-22T11:59:40;37.40;30.50
67182;DHT22;54114;53.524;49.396;2022-07-22T12:02:07;37.60;30.50
67182;DHT22;54114;53.524;49.396;2022-07-22T12:04:36;37.80;30.40
67182;DHT22;54114;53.524;49.396;2022-07-22T12:07:03;38.20;30.00
67182;DHT22;54114;53.524;49.396;2022-07-22T12:09:35;38.60;29.40
67182;DHT22;54114;53.524;49.396;2022-07-22T12:12:03;38.60;29.00
67182;DHT22;54114;53.524;49.396;2022-07-22T12:14:32;38.60;28.80
67182;DHT22;54114;53.524;49.396;2022-07-22T12:17:07;38.60;28.70
67182;DHT22;54114;53.524;49.396;2022-07-22T12:19:39;38.70;28.50
67182;DHT22;54114;53.524;49.396;2022-07-22T12:22:19;38.90;28.60
67182;DHT22;54114;53.524;49.396;2022-07-22T12:24:58;39.30;28.40
67182;DHT22;54114;53.524;49.396;2022-07-22T12:27:26;39.60;28.10
67182;DHT22;54114;53.524;49.396;2022-07-22T12:29:53;40.10;28.60
67182;DHT22;54114;53.524;49.396;2022-07-22T12:34:59;41.00;27.40
67182;DHT22;54114;53.524;49.396;2022-07-22T12:37:34;41.10;26.90
67182;DHT22;54114;53.524;49.396;2022-07-22T12:40:28;41.00;26.80
67182;DHT22;54114;53.524;49.396;2022-07-22T12:43:05;41.00;27.00
67182;DHT22;54114;53.524;49.396;2022-07-22T12:45:36;41.00;26.80
67182;DHT22;54114;53.524;49.396;2022-07-22T12:53:16;40.70;26.90
67182;DHT22;54114;53.524;49.396;2022-07-22T12:55:48;40.60;26.80
67182;DHT22;54114;53.524;49.396;2022-07-22T12:58:17;40.40;26.70
67182;DHT22;54114;53.524;49.396;2022-07-22T13:00:47;40.10;26.90
67182;DHT22;54114;53.524;49.396;2022-07-22T13:03:15;40.00;27.20
67182;DHT22;54114;53.524;49.396;2022-07-22T13:05:47;40.00;27.30
67182;DHT22;54114;53.524;49.396;2022-07-22T13:08:14;40.00;27.20
67182;DHT22;54114;53.524;49.396;2022-07-22T13:10:41;39.90;27.30
67182;DHT22;54114;53.524;49.396;2022-07-22T13:13:08;39.70;27.30
67182;DHT22;54114;53.524;49.396;2022-07-22T13:15:36;39.50;27.40
67182;DHT22;54114;53.524;49.396;2022-07-22T13:18:03;39.40;27.60
67182;DHT22;54114;53.524;49.396;2022-07-22T13:20:30;39.30;27.60
67182;DHT22;54114;53.524;49.396;2022-07-22T13:22:57;39.10;27.70
67182;DHT22;54114;53.524;49.396;2022-07-22T13:25:24;39.10;27.90
67182;DHT22;54114;53.524;49.396;2022-07-22T13:27:55;39.00;27.90
67182;DHT22;54114;53.524;49.396;2022-07-22T13:30:22;39.00;27.90
67182;DHT22;54114;53.524;49.396;2022-07-22T13:32:49;38.90;27.80
67182;DHT22;54114;53.524;49.396;2022-07-22T13:35:16;38.80;27.90
67182;DHT22;54114;53.524;49.396;2022-07-22T13:37:44;38.70;28.00
67182;DHT22;54114;53.524;49.396;2022-07-22T13:40:11;38.60;28.10
67182;DHT22;54114;53.524;49.396;2022-07-22T13:42:38;38.70;28.00
67182;DHT22;54114;53.524;49.396;2022-07-22T13:45:06;38.70;27.90
67182;DHT22;54114;53.524;49.396;2022-07-22T13:47:36;38.70;27.90
67182;DHT22;54114;53.524;49.396;2022-07-22T13:50:03;38.60;27.70
67182;DHT22;54114;53.524;49.396;2022-07-22T13:52:30;38.60;27.90
67182;DHT22;54114;53.524;49.396;2022-07-22T13:54:57;38.60;28.00
67182;DHT22;54114;53.524;49.396;2022-07-22T13:57:24;38.60;28.30
67182;DHT22;54114;53.524;49.396;2022-07-22T13:59:51;38.60;28.30
67182;DHT22;54114;53.524;49.396;2022-07-22T14:02:18;38.60;28.20
67182;DHT22;54114;53.524;49.396;2022-07-22T14:04:45;38.60;28.30
67182;DHT22;54114;53.524;49.396;2022-07-22T14:07:11;38.70;28.20
67182;DHT22;54114;53.524;49.396;2022-07-22T14:09:39;38.80;28.30
67182;DHT22;54114;53.524;49.396;2022-07-22T14:12:06;38.80;28.10
67182;DHT22;54114;53.524;49.396;2022-07-22T14:14:33;38.70;28.10
67182;DHT22;54114;53.524;49.396;2022-07-22T14:17:00;38.80;28.10
67182;DHT22;54114;53.524;49.396;2022-07-22T14:19:27;38.80;28.10
67182;DHT22;54114;53.524;49.396;2022-07-22T14:21:54;38.90;28.20
67182;DHT22;54114;53.524;49.396;2022-07-22T14:24:20;39.00;28.30
67182;DHT22;54114;53.524;49.396;2022-07-22T14:26:48;39.00;28.30
67182;DHT22;54114;53.524;49.396;2022-07-22T14:29:15;39.00;28.20
67182;DHT22;54114;53.524;49.396;2022-07-22T14:31:42;39.00;28.40
67182;DHT22;54114;53.524;49.396;2022-07-22T14:34:09;39.00;28.40
67182;DHT22;54114;53.524;49.396;2022-07-22T14:36:35;39.00;28.30
67182;DHT22;54114;53.524;49.396;2022-07-22T14:39:03;39.00;28.50
67182;DHT22;54114;53.524;49.396;2022-07-22T14:41:29;38.90;28.60
67182;DHT22;54114;53.524;49.396;2022-07-22T14:43:56;39.10;28.80
67182;DHT22;54114;53.524;49.396;2022-07-22T14:46:23;39.10;28.70
67182;DHT22;54114;53.524;49.396;2022-07-22T14:48:50;39.20;28.70
67182;DHT22;54114;53.524;49.396;2022-07-22T14:51:20;39.20;28.60
67182;DHT22;54114;53.524;49.396;2022-07-22T14:53:49;39.20;28.60
67182;DHT22;54114;53.524;49.396;2022-07-22T14:56:16;39.20;28.60
67182;DHT22;54114;53.524;49.396;2022-07-22T14:58:43;39.20;28.80
67182;DHT22;54114;53.524;49.396;2022-07-22T15:01:10;39.20;28.90
67182;DHT22;54114;53.524;49.396;2022-07-22T15:03:38;39.30;29.00
67182;DHT22;54114;53.524;49.396;2022-07-22T15:06:05;39.30;29.00
67182;DHT22;54114;53.524;49.396;2022-07-22T15:08:32;39.40;29.00
67182;DHT22;54114;53.524;49.396;2022-07-22T15:10:59;39.30;29.00
67182;DHT22;54114;53.524;49.396;2022-07-22T15:13:27;39.30;29.30
67182;DHT22;54114;53.524;49.396;2022-07-22T15:15:55;39.20;29.40
67182;DHT22;54114;53.524;49.396;2022-07-22T15:18:22;39.10;29.60
67182;DHT22;54114;53.524;49.396;2022-07-22T15:20:48;38.90;29.90
67182;DHT22;54114;53.524;49.396;2022-07-22T15:23:16;38.70;29.90
67182;DHT22;54114;53.524;49.396;2022-07-22T15:25:42;38.60;30.00
67182;DHT22;54114;53.524;49.396;2022-07-22T15:28:09;38.40;30.30
67182;DHT22;54114;53.524;49.396;2022-07-22T15:30:35;38.20;30.40
67182;DHT22;54114;53.524;49.396;2022-07-22T15:33:02;38.10;30.70
67182;DHT22;54114;53.524;49.396;2022-07-22T15:35:29;37.90;30.80
67182;DHT22;54114;53.524;49.396;2022-07-22T15:37:56;37.80;31.00